Trois-Rivieres, Canada
Current Conditions -  °F | °C
As of 7:00 AM on Wednesday 26 Nov 2014 (Local Time) from CYRQ Reporting Station
Broken Clouds Broken Clouds  
Wind Chill: 28°   Ceiling: 4000
Heat Index: 28°   Visibility: 9mi
Dew Point: 19°   Wind: 0mph
Humidity: 69%   Direction: NA
Pressure: 30.21"   Gusts: NA
Location:  46.34°N, 72.55°W
Report Text: CYRQ 261200Z AUTO 00000KT 9SM BKN040 BKN220 BKN250 M02/M07 A3021 RMK SLP232
Loading
Personal Weather Stations






























Interactive Weather Map New forecast layout! Learn more

10-Day Weather Forecast

Advertisements
Track Severe Weather on mobile